Portada
METAR-TAF:

METAR-TAF

Aeropuertos :

Aeropuerto de Madrid-Cuatro Vientos

Madrid-Cuatro Vientos, España

latitud: 40-23N, longitud: 003-47W, altitud: 690 m

Observación

El informe se hizo hace 24 minutos, a las 01:00 UTC
Viento 2 kt con dirección variable
Temperatura 16°C
Humedad 88%
Presión 1016 hPa
Visibilidad 10 km o más
sin nubes por debajo de 1500 m y sin presencia de cumulonimbus.

METAR: LEVS 120100Z AUTO VRB02KT CAVOK 16/14 Q1016

Hora: 03:24 (01:24 UTC)

Pronóstico

El informe se hizo hace 2 horas y 24 minutos, a las 23:00 UTC
Pronóstico válido del 12 a las 00 UTC al 12 a las 24 UTC
Viento 4 kt con dirección variable
Visibilidad 10 km o más
sin nubes por debajo de 1500 m y sin presencia de cumulonimbus.
Temporalmente
del 12 a las 12 UTC al 12 a las 18 UTC
Viento 10 kt del suroeste

TAF: LEVS 112300Z 1200/1224 VRB04KT CAVOK TX28/1216Z TN15/1206Z TEMPO 1212/1218 23010KT

Observaciones y pronósticos meteorológicos de más de 4000 aeropuertos (mensajes METAR y TAF).

Los puntos amarillos y rojos representan las estaciones disponibles.

Ponga el ratón en el punto deseado para ver el nombre de la estación.

Haga clic para ver las observaciones y los pronósticos meteorológicos.

Para cambiar el mapa : haga clic en los botones verdes con una cruz de color negro para hacer un zoom, en el botón verde con un guión para alejar o en las flechas verdes para mapas adyacentes.


METAR-TAF: